Abilene Regional Airport Abilene US
ICAO: KABI
IATA: ABI
Category: Medium
Scheduled Services: Yes

Elevation: 1791 ft
TransAlt. 18000 ft.

Airport Communications:
APP/DEP:125
ATIS:118.25
GND:121.7
FORT WORTH RDO:122.65
TWR:120.1
UNICOM:122.95

KABI Zoom In..

Runways:

(A) RW 04 length 3679 ft width 100 ft
LOC 109.75 / hdg 44

(B) RW 17L length 7198 ft width 150 ft
LOC 109.75 / hdg 172

(C) RW 17R length 7203 ft width 150 ft
LOC 109.75 / hdg 172

(D) RW 22 length 3679 ft width 100 ft
LOC 109.75 / hdg 224

(E) RW 35L length 7203 ft width 150 ft
LOC 109.75 / hdg 352

(F) RW 35R length 7198 ft width 150 ft
ILS 110.30 / hdg 352

Location; KABI
Day. 17 / Time. 06.52 Zulu
* Altimeter: 30.04
* Temperature: 28° c. 82.4°f.
* Wind from: 190° Speed 09 kn.
Dewpoint: 13° c.
Visibility: 9 Statute Miles.
Clouds: Clear (automated report).

KABI 170652Z 19009KT 9SM CLR 28/13 A3004 RMK AO2 SLP142 T02830133


Wind From 190°
Speed 09 kn.

 
 
jpsmedia.com for Web Design worldairports.se 2018   terms of use